Time;durP1;ratioP1;P1;durP2;ratioP2;P2;SDS_P1;SDS_P2;PMS_P1;PMS_P2;Temp;Humidity;BMP_temperature;BMP_pressure;BME280_temperature;BME280_humidity;BME280_pressure;Samples;Min_cycle;Max_cycle;Signal;HPM_P1;HPM_P2
2022/06/04 00:00:42;;;;;;;7.87;5.42;;;;;;;18.24;47.62;100394.72;2185464;81;28877;-67
2022/06/04 00:03:43;;;;;;;13.33;5.27;;;;;;;18.22;47.71;100388.93;2185909;81;31934;-68
2022/06/04 00:06:45;;;;;;;9.75;5.70;;;;;;;18.19;47.76;100401.38;2182541;81;32945;-68
2022/06/04 00:15:29;;;;;;;7.25;5.55;;;;;;;18.12;47.83;100388.44;2194402;80;29358;-69
2022/06/04 00:16:11;;;;;;;6.08;5.35;;;;;;;18.05;48.32;100381.28;2216760;80;28664;-69
2022/06/04 00:19:13;;;;;;;6.65;6.03;;;;;;;17.99;48.23;100359.61;2216900;80;31038;-71
2022/06/04 00:22:15;;;;;;;6.78;5.58;;;;;;;17.94;48.08;100356.86;2216723;79;32958;-69
2022/06/04 00:25:16;;;;;;;7.40;5.50;;;;;;;17.89;48.36;100353.14;2216490;80;29529;-69
2022/06/04 00:28:20;;;;;;;6.45;5.17;;;;;;;17.84;48.48;100350.80;2216984;79;27706;-69
2022/06/04 00:31:22;;;;;;;9.25;5.40;;;;;;;17.80;48.54;100346.60;2217018;79;28628;-69
2022/06/04 00:34:24;;;;;;;8.75;5.28;;;;;;;17.76;48.99;100343.28;2216964;80;30978;-70
2022/06/04 00:37:26;;;;;;;7.83;5.80;;;;;;;17.74;48.78;100338.98;2216394;80;34017;-69
2022/06/04 00:41:07;;;;;;;10.60;5.95;;;;;;;17.69;48.99;100339.36;2216711;80;29298;-69
2022/06/04 00:44:19;;;;;;;9.33;5.95;;;;;;;17.66;49.00;100335.53;2150709;82;28258;-69
2022/06/04 00:47:25;;;;;;;12.28;6.35;;;;;;;17.60;48.92;100335.52;2150651;82;28646;-69
2022/06/04 00:50:30;;;;;;;6.78;5.62;;;;;;;17.55;49.34;100330.95;2150749;82;31631;-69
2022/06/04 00:53:31;;;;;;;7.37;5.42;;;;;;;17.52;49.39;100325.77;2150791;82;32937;-70
2022/06/04 00:56:55;;;;;;;7.37;4.95;;;;;;;17.50;49.51;100317.41;2150447;82;30360;-70
2022/06/04 01:00:11;;;;;;;6.62;5.25;;;;;;;17.48;49.43;100321.56;2150775;82;27662;-70
2022/06/04 01:03:49;;;;;;;11.33;5.05;;;;;;;17.46;49.80;100321.70;2150768;82;28861;-69
2022/06/04 01:06:55;;;;;;;8.70;5.08;;;;;;;17.41;50.13;100310.86;2168385;80;31024;-68
2022/06/04 01:10:20;;;;;;;8.73;5.28;;;;;;;17.36;49.62;100311.23;2209561;80;32976;-69
2022/06/04 01:13:53;;;;;;;7.35;5.33;;;;;;;17.33;49.76;100301.98;2209839;79;29403;-70
2022/06/04 01:17:02;;;;;;;9.68;5.20;;;;;;;17.29;49.68;100300.50;2209407;80;28196;-69
2022/06/04 01:20:26;;;;;;;6.55;5.15;;;;;;;17.23;49.83;100288.78;2208352;80;28663;-69
2022/06/04 01:23:54;;;;;;;6.45;5.55;;;;;;;17.25;50.16;100302.59;2209474;80;31185;-69
2022/06/04 01:27:18;;;;;;;7.90;4.78;;;;;;;17.25;49.86;100305.77;2108986;83;33013;-69
2022/06/04 01:30:34;;;;;;;4.97;4.47;;;;;;;17.23;50.04;100303.20;2106261;83;30131;-69
2022/06/04 01:33:40;;;;;;;8.53;5.72;;;;;;;17.15;50.42;100294.31;2194065;80;27807;-69
2022/06/04 01:36:59;;;;;;;5.83;4.80;;;;;;;17.14;50.39;100302.06;2191560;81;28655;-69
2022/06/04 01:43:25;;;;;;;5.55;4.90;;;;;;;17.05;50.61;100297.34;2193596;81;33797;-68
2022/06/04 01:46:37;;;;;;;5.95;5.10;;;;;;;17.01;50.92;100298.08;2194153;81;29320;-68
2022/06/04 01:49:46;;;;;;;8.58;5.75;;;;;;;16.95;50.94;100293.63;2192553;81;28305;-70
2022/06/04 01:52:48;;;;;;;6.30;5.15;;;;;;;16.91;50.97;100288.92;2194098;81;28620;-69
2022/06/04 01:55:56;;;;;;;8.73;4.87;;;;;;;16.84;51.07;100287.65;2194147;81;30992;-70
2022/06/04 01:59:12;;;;;;;7.75;4.75;;;;;;;16.80;51.11;100290.20;2194053;81;32936;-70
2022/06/04 02:02:22;;;;;;;6.40;5.30;;;;;;;16.71;51.34;100297.21;2192244;81;29314;-69
2022/06/04 02:05:31;;;;;;;8.68;5.17;;;;;;;16.71;51.34;100297.21;2217158;79;27738;-70
2022/06/04 02:08:46;;;;;;;8.98;5.72;;;;;;;16.66;51.64;100297.53;2197969;80;28646;-70
2022/06/04 02:11:51;;;;;;;;;;;;;;;16.63;51.88;100302.32;2161353;82;31067;-70
2022/06/04 02:14:56;;;;;;;6.92;5.28;;;;;;;16.58;52.00;100303.14;2200976;80;32988;-70
2022/06/04 02:17:58;;;;;;;7.03;5.55;;;;;;;16.53;51.74;100307.55;2201178;80;29330;-70
2022/06/04 02:20:59;;;;;;;7.92;5.72;;;;;;;16.50;51.84;100314.06;2200972;80;27709;-70
2022/06/04 02:24:01;;;;;;;6.20;5.25;;;;;;;16.48;52.45;100310.61;2200922;80;29392;-70
2022/06/04 02:27:05;;;;;;;5.53;4.92;;;;;;;16.48;52.45;100310.61;2200846;80;31005;-70
2022/06/04 02:30:09;;;;;;;8.00;5.07;;;;;;;16.48;52.47;100314.66;2201128;80;32913;-70
2022/06/04 02:33:25;;;;;;;8.08;5.45;;;;;;;16.50;52.52;100322.17;2200503;80;29359;-70
2022/06/04 02:36:47;;;;;;;7.53;5.50;;;;;;;16.53;52.73;100317.02;2200371;80;27721;-70
2022/06/04 02:40:12;;;;;;;7.53;5.47;;;;;;;16.54;52.76;100306.11;2201125;80;28668;-69
2022/06/04 02:43:21;;;;;;;7.87;5.87;;;;;;;16.55;52.49;100297.48;2201106;80;31010;-70
2022/06/04 02:46:41;;;;;;;7.50;5.10;;;;;;;16.58;52.75;100297.73;2201162;80;32951;-69
2022/06/04 02:49:50;;;;;;;6.30;5.33;;;;;;;16.58;52.75;100308.08;2201153;80;29321;-70
2022/06/04 02:52:55;;;;;;;6.47;5.85;;;;;;;16.47;52.82;100291.30;2201262;80;27569;-70
2022/06/04 02:56:01;;;;;;;6.90;5.45;;;;;;;16.47;52.82;100291.30;2201154;80;28602;-70
2022/06/04 02:59:07;;;;;;;9.10;6.05;;;;;;;16.61;52.51;100311.03;2200824;79;31174;-71
2022/06/04 03:02:12;;;;;;;7.20;6.20;;;;;;;16.61;52.53;100305.63;2200900;80;32999;-70
2022/06/04 03:05:21;;;;;;;7.45;6.12;;;;;;;16.64;52.76;100314.87;2201078;80;30099;-71
2022/06/04 03:08:25;;;;;;;8.78;6.75;;;;;;;16.67;52.61;100308.73;2192306;79;28335;-70
2022/06/04 03:11:27;;;;;;;8.65;6.28;;;;;;;16.58;53.15;100280.16;2187593;81;28670;-70
2022/06/04 03:14:28;;;;;;;7.12;5.92;;;;;;;16.58;53.15;100280.16;2187409;81;31036;-69
2022/06/04 03:17:29;;;;;;;9.30;6.37;;;;;;;16.72;52.95;100296.20;2187617;81;33803;-70
2022/06/04 03:20:31;;;;;;;9.30;5.95;;;;;;;16.77;53.03;100295.88;2187638;81;29337;-70
2022/06/04 03:23:32;;;;;;;7.28;6.35;;;;;;;16.78;53.30;100301.16;2187798;81;27735;-69
2022/06/04 03:26:34;;;;;;;8.63;6.25;;;;;;;16.78;53.30;100301.16;2187557;81;28630;-69
2022/06/04 03:29:36;;;;;;;10.60;5.53;;;;;;;16.75;53.05;100312.20;2187023;81;31072;-70
2022/06/04 03:32:37;;;;;;;11.12;5.47;;;;;;;16.63;53.46;100282.88;2187281;81;32959;-70
2022/06/04 03:35:39;;;;;;;7.40;5.60;;;;;;;16.63;53.46;100282.88;2187453;81;29314;-70
2022/06/04 03:38:40;;;;;;;9.23;5.90;;;;;;;16.77;53.20;100310.25;2187693;81;27647;-70
2022/06/04 03:41:41;;;;;;;7.92;6.00;;;;;;;16.81;53.57;100313.11;2187404;81;28638;-70
2022/06/04 03:44:47;;;;;;;8.08;6.30;;;;;;;16.81;53.57;100313.11;2187498;81;31000;-69
2022/06/04 03:47:46;;;;;;;9.83;5.78;;;;;;;16.83;53.87;100315.69;2186720;81;33185;-69
2022/06/04 03:50:48;;;;;;;8.78;6.40;;;;;;;16.80;53.86;100311.37;2187359;81;29301;-69
2022/06/04 03:53:49;;;;;;;8.15;6.42;;;;;;;16.70;54.29;100296.84;2187774;81;27649;-70
2022/06/04 03:57:37;;;;;;;8.35;6.15;;;;;;;16.77;54.13;100314.31;2187497;81;29256;-70
2022/06/04 03:59:54;;;;;;;10.30;6.58;;;;;;;16.79;54.24;100323.69;2183091;81;30862;-70
2022/06/04 04:03:02;;;;;;;9.23;6.53;;;;;;;16.78;54.00;100328.72;2187535;81;34002;-69
2022/06/04 04:06:04;;;;;;;17.85;8.13;;;;;;;16.78;55.05;100321.45;2187601;81;30100;-70
2022/06/04 04:09:09;;;;;;;12.90;7.92;;;;;;;16.73;55.28;100332.25;2203148;79;27691;-70
2022/06/04 04:12:08;;;;;;;100.18;16.57;;;;;;;16.70;56.09;100329.30;2209064;80;28657;-71
2022/06/04 04:15:12;;;;;;;26.00;10.98;;;;;;;16.65;65.20;100319.30;2209973;80;31030;-71
2022/06/04 04:18:14;;;;;;;25.20;11.15;;;;;;;16.13;74.66;100295.15;2209909;80;32950;-67
2022/06/04 04:21:20;;;;;;;18.57;11.45;;;;;;;15.61;76.06;100288.95;2209775;79;29322;-70
2022/06/04 04:24:21;;;;;;;23.85;12.50;;;;;;;15.28;76.73;100303.34;2209923;80;27720;-71
2022/06/04 04:27:22;;;;;;;30.00;12.95;;;;;;;15.15;77.72;100307.87;2209845;79;28617;-68
2022/06/04 04:30:28;;;;;;;18.05;11.83;;;;;;;15.07;77.74;100300.77;2209458;79;30433;-68
2022/06/04 04:33:29;;;;;;;17.30;11.00;;;;;;;14.89;76.89;100301.94;2209622;80;32943;-70
2022/06/04 04:36:31;;;;;;;18.27;11.38;;;;;;;14.78;77.04;100312.59;2209590;80;30076;-71
2022/06/04 04:39:33;;;;;;;15.13;12.10;;;;;;;14.75;77.52;100314.14;2209762;80;27697;-71
2022/06/04 04:42:34;;;;;;;20.05;12.93;;;;;;;14.73;77.86;100324.16;2209910;80;28650;-73
2022/06/04 04:45:35;;;;;;;24.27;13.18;;;;;;;14.74;78.29;100333.98;2209910;80;31791;-70
2022/06/04 04:48:38;;;;;;;25.65;14.43;;;;;;;14.81;78.79;100336.64;2209994;80;32929;-71
2022/06/04 04:51:39;;;;;;;15.45;12.85;;;;;;;14.86;78.90;100334.50;2209839;80;29338;-72
2022/06/04 04:54:41;;;;;;;21.33;14.47;;;;;;;14.92;78.80;100338.62;2210123;79;28175;-71
2022/06/04 04:57:42;;;;;;;17.62;13.83;;;;;;;14.96;78.67;100338.80;2209566;80;28738;-71
2022/06/04 05:00:44;;;;;;;15.20;13.68;;;;;;;14.98;78.73;100335.52;2209871;80;31788;-72
2022/06/04 05:03:45;;;;;;;20.77;14.18;;;;;;;15.07;79.22;100352.92;2209892;79;33771;-72
2022/06/04 05:06:48;;;;;;;22.17;14.50;;;;;;;15.13;79.34;100392.11;2209911;80;30127;-72
2022/06/04 05:09:49;;;;;;;20.15;15.35;;;;;;;15.18;79.50;100389.97;2230575;79;27706;-72
2022/06/04 05:12:53;;;;;;;17.98;13.55;;;;;;;15.19;79.47;100430.34;2234723;79;28645;-74
2022/06/04 05:15:54;;;;;;;19.80;14.53;;;;;;;15.19;79.60;100414.14;2234849;79;31087;-73
2022/06/04 05:18:55;;;;;;;16.50;13.53;;;;;;;15.19;79.74;100427.64;2234706;79;32977;-71
2022/06/04 05:21:57;;;;;;;17.32;13.43;;;;;;;15.19;79.74;100429.48;2235033;79;29265;-70
2022/06/04 05:24:58;;;;;;;18.62;14.43;;;;;;;15.19;79.94;100440.28;2234783;79;27691;-71
2022/06/04 05:28:00;;;;;;;15.90;13.65;;;;;;;15.17;79.91;100450.31;2234914;79;28501;-71
2022/06/04 05:31:02;;;;;;;16.02;13.80;;;;;;;15.13;80.05;100446.08;2234880;79;30978;-75
2022/06/04 05:34:03;;;;;;;17.73;14.28;;;;;;;15.12;80.26;100443.87;2234741;79;33898;-72
2022/06/04 05:37:06;;;;;;;20.75;14.03;;;;;;;15.15;80.60;100445.49;2234907;79;29115;-76
2022/06/04 05:40:09;;;;;;;18.35;14.70;;;;;;;15.14;80.65;100441.91;2234941;79;27617;-76
2022/06/04 05:43:10;;;;;;;21.95;15.43;;;;;;;15.14;80.72;100447.31;2234880;79;28633;-76
2022/06/04 05:46:15;;;;;;;22.98;15.32;;;;;;;15.13;80.83;100444.26;2234383;79;31042;-73
2022/06/04 05:49:18;;;;;;;20.00;15.40;;;;;;;15.15;80.90;100436.90;2234850;79;33169;-74
2022/06/04 05:52:20;;;;;;;24.27;15.10;;;;;;;15.17;81.11;100437.66;2234476;79;30312;-73
2022/06/04 05:55:22;;;;;;;17.70;14.87;;;;;;;15.17;81.18;100443.06;2234824;79;27873;-75
2022/06/04 05:58:23;;;;;;;20.77;15.58;;;;;;;15.22;81.37;100454.05;2234801;79;29687;-75
2022/06/04 06:01:27;;;;;;;19.70;15.28;;;;;;;15.21;81.39;100445.09;2234872;79;31363;-75
2022/06/04 06:04:28;;;;;;;16.55;14.20;;;;;;;15.17;81.27;100443.06;2234619;79;32985;-75
2022/06/04 06:07:30;;;;;;;19.05;15.30;;;;;;;15.17;81.30;100436.81;2234679;79;29686;-71
2022/06/04 06:10:32;;;;;;;16.48;14.80;;;;;;;15.15;81.35;100436.05;2210327;79;27690;-74
2022/06/04 06:13:34;;;;;;;20.00;16.07;;;;;;;15.21;81.77;100438.34;2209605;79;29883;-74
2022/06/04 06:16:45;;;;;;;19.12;16.07;;;;;;;15.33;82.19;100436.63;2209508;79;32184;-73
2022/06/04 06:19:46;;;;;;;19.10;15.32;;;;;;;15.43;82.30;100432.36;2209651;80;33306;-74
2022/06/04 06:22:47;;;;;;;16.62;14.33;;;;;;;15.53;82.23;100438.00;2209633;80;29307;-76
2022/06/04 06:25:49;;;;;;;18.92;13.80;;;;;;;15.54;81.98;100433.45;2209636;79;27603;-72
2022/06/04 06:28:51;;;;;;;16.97;14.40;;;;;;;15.54;82.02;100430.75;2209461;80;29483;-71
2022/06/04 06:31:55;;;;;;;19.25;14.47;;;;;;;15.55;82.04;100432.48;2209542;80;30991;-77
2022/06/04 06:34:56;;;;;;;19.37;15.43;;;;;;;15.61;82.29;100424.82;2209643;80;32961;-78
2022/06/04 06:37:57;;;;;;;17.48;15.68;;;;;;;15.86;82.79;100425.87;2209784;80;29914;-80
2022/06/04 06:40:59;;;;;;;18.27;15.23;;;;;;;16.09;82.65;100423.36;2209332;79;27729;-78
2022/06/04 06:44:01;;;;;;;18.40;14.93;;;;;;;16.29;82.55;100427.37;2209506;79;28670;-77
2022/06/04 06:47:03;;;;;;;15.72;14.13;;;;;;;16.21;82.37;100377.91;2209542;80;30436;-76
2022/06/04 06:50:06;;;;;;;17.73;15.20;;;;;;;16.53;81.93;100431.95;2209523;80;33535;-73
2022/06/04 06:53:08;;;;;;;17.02;15.18;;;;;;;16.53;81.93;100431.95;2209140;79;29331;-78
2022/06/04 06:56:23;;;;;;;18.75;15.58;;;;;;;16.52;81.76;100408.12;2209642;80;27784;-78
2022/06/04 06:59:25;;;;;;;17.67;15.18;;;;;;;16.64;81.66;100424.42;2209631;80;29498;-77
2022/06/04 07:02:33;;;;;;;17.57;14.00;;;;;;;16.68;81.45;100424.08;2209625;80;31051;-76
2022/06/04 07:05:35;;;;;;;15.68;14.07;;;;;;;16.72;81.65;100417.94;2209399;80;32953;-76
2022/06/04 07:08:44;;;;;;;16.17;14.47;;;;;;;16.76;81.39;100422.16;2178946;80;27722;-72
2022/06/04 07:11:53;;;;;;;15.43;13.95;;;;;;;16.89;81.80;100422.59;2209732;80;27677;-78
2022/06/04 07:14:56;;;;;;;18.12;15.50;;;;;;;17.02;82.06;100418.05;2209581;80;29552;-76
2022/06/04 07:17:58;;;;;;;21.23;15.13;;;;;;;17.21;82.10;100420.22;2209571;80;30689;-71
2022/06/04 07:20:59;;;;;;;18.20;15.23;;;;;;;17.24;81.40;100417.76;2209599;80;33078;-74
2022/06/04 07:24:01;;;;;;;20.08;15.80;;;;;;;17.41;82.25;100420.05;2209911;80;29925;-75
2022/06/04 07:27:04;;;;;;;19.20;16.93;;;;;;;17.58;82.31;100415.17;2209860;80;27635;-75
2022/06/04 07:30:06;;;;;;;19.15;15.15;;;;;;;17.71;82.30;100411.88;2209655;80;28638;-75
2022/06/04 07:33:07;;;;;;;18.17;15.50;;;;;;;17.73;82.06;100406.35;2209703;79;30764;-77
2022/06/04 07:36:16;;;;;;;16.52;14.83;;;;;;;17.75;81.84;100419.30;2209630;80;32915;-77
2022/06/04 07:39:18;;;;;;;18.92;16.23;;;;;;;17.79;81.88;100413.13;2208518;80;29395;-74
2022/06/04 07:42:20;;;;;;;17.80;15.60;;;;;;;17.86;81.90;100409.81;2209302;80;27655;-74
2022/06/04 07:45:22;;;;;;;17.92;15.03;;;;;;;17.87;81.39;100403.41;2209683;79;29437;-71
2022/06/04 07:48:23;;;;;;;21.93;16.67;;;;;;;17.97;81.45;100402.20;2209334;80;32262;-66
2022/06/04 07:51:26;;;;;;;18.23;16.35;;;;;;;18.25;82.34;100402.72;2209206;79;33795;-71
2022/06/04 07:54:28;;;;;;;19.23;17.02;;;;;;;18.54;81.92;100410.34;2209890;80;30553;-69
2022/06/04 07:57:29;;;;;;;19.98;16.25;;;;;;;18.78;81.85;100410.69;2209990;79;27700;-65
2022/06/04 08:00:30;;;;;;;18.95;16.95;;;;;;;18.98;82.36;100410.41;2209895;80;29052;-67
2022/06/04 08:03:34;;;;;;;19.60;16.52;;;;;;;19.13;81.94;100412.34;2209920;80;31375;-69
2022/06/04 08:06:35;;;;;;;18.93;17.03;;;;;;;19.22;81.83;100411.55;2210099;80;32950;-69
2022/06/04 08:09:36;;;;;;;18.50;16.60;;;;;;;19.32;81.13;100417.07;2219966;79;30407;-69
2022/06/04 08:12:49;;;;;;;17.15;15.53;;;;;;;19.45;81.35;100412.82;2235323;79;27811;-65
2022/06/04 08:15:48;;;;;;;20.80;15.28;;;;;;;19.66;81.50;100408.75;2192598;81;28727;-72
2022/06/04 08:18:50;;;;;;;18.70;15.18;;;;;;;19.76;80.43;100400.66;2193961;81;31434;-65
2022/06/04 08:21:52;;;;;;;16.48;14.43;;;;;;;19.88;80.56;100396.05;2193820;81;34373;-68
2022/06/04 08:25:06;;;;;;;16.07;14.47;;;;;;;20.06;80.40;100400.86;2193742;79;30466;-65
2022/06/04 08:28:10;;;;;;;18.77;15.35;;;;;;;20.28;80.50;100399.81;2193424;81;27955;-68
2022/06/04 08:31:22;;;;;;;16.15;14.03;;;;;;;20.61;80.64;100400.50;2192933;81;27708;-65
2022/06/04 08:34:23;;;;;;;20.25;14.65;;;;;;;20.92;80.20;100410.86;2168361;81;31525;-66
2022/06/04 08:37:25;;;;;;;14.95;13.32;;;;;;;21.33;80.58;100412.58;2193836;81;33559;-67
2022/06/04 08:40:44;;;;;;;14.18;12.88;;;;;;;21.76;80.17;100422.17;2194267;81;29721;-65
2022/06/04 08:43:51;;;;;;;14.65;12.40;;;;;;;22.14;78.71;100427.70;2156126;82;28260;-65
2022/06/04 08:47:32;;;;;;;12.28;11.18;;;;;;;22.46;76.60;100438.75;2156085;82;29376;-66
2022/06/04 08:50:35;;;;;;;11.93;10.72;;;;;;;22.64;74.75;100437.95;2155952;82;32180;-64
2022/06/04 08:53:37;;;;;;;12.98;11.68;;;;;;;22.80;73.92;100438.14;2155803;81;34167;-64
2022/06/04 09:00:13;;;;;;;10.30;9.05;;;;;;;23.12;72.39;100429.95;2156215;82;27746;-65
2022/06/04 09:03:38;;;;;;;11.65;10.38;;;;;;;23.22;71.28;100440.84;2163896;81;28706;-63
2022/06/04 09:07:31;;;;;;;10.98;9.33;;;;;;;23.19;70.60;100446.06;2193944;81;31855;-65
2022/06/04 09:10:44;;;;;;;9.80;8.70;;;;;;;23.32;69.82;100440.77;2171488;80;34226;-63
2022/06/04 09:14:20;;;;;;;11.93;9.88;;;;;;;23.48;68.46;100432.72;2201921;80;29415;-67
2022/06/04 09:17:36;;;;;;;11.12;9.80;;;;;;;23.47;67.71;100442.43;2111232;82;27816;-66
2022/06/04 09:20:48;;;;;;;11.15;10.00;;;;;;;23.59;67.86;100452.10;2116539;83;29855;-75
2022/06/04 09:23:50;;;;;;;10.90;9.20;;;;;;;23.67;67.43;100463.62;2116904;83;32239;-69
2022/06/04 09:27:23;;;;;;;10.25;9.25;;;;;;;23.65;65.59;100476.63;2115326;83;33828;-63
2022/06/04 09:30:30;;;;;;;16.40;10.30;;;;;;;23.45;65.97;100473.17;2107913;83;29816;-65
2022/06/04 09:33:55;;;;;;;11.55;10.45;;;;;;;23.54;66.81;100475.47;2112599;83;27782;-69
2022/06/04 09:36:56;;;;;;;12.53;10.30;;;;;;;23.73;66.59;100479.94;2093545;85;29650;-66
2022/06/04 09:40:06;;;;;;;11.03;9.78;;;;;;;23.99;66.06;100481.37;2091979;83;31650;-71
2022/06/04 09:43:17;;;;;;;14.78;9.00;;;;;;;24.16;65.04;100487.81;2094083;85;33038;-73
2022/06/04 09:46:23;;;;;;;9.55;8.65;;;;;;;24.16;63.65;100478.75;2093817;85;30532;-74
2022/06/04 09:49:40;;;;;;;12.30;9.25;;;;;;;24.32;63.73;100474.75;2094417;85;27678;-71
2022/06/04 09:52:45;;;;;;;10.95;9.18;;;;;;;24.47;63.37;100475.52;2101697;80;30053;-74
2022/06/04 09:55:58;;;;;;;10.30;9.30;;;;;;;24.66;63.23;100475.77;2254538;78;31945;-72
2022/06/04 09:59:18;;;;;;;9.43;7.28;;;;;;;24.82;63.08;100475.02;2253671;77;33560;-78
2022/06/04 10:02:20;;;;;;;8.03;7.22;;;;;;;24.99;61.20;100480.87;2252891;79;29879;-74
2022/06/04 10:05:25;;;;;;;9.00;6.83;;;;;;;24.96;60.10;100490.83;2237272;79;27629;-76
2022/06/04 10:08:29;;;;;;;7.75;6.75;;;;;;;25.01;60.95;100491.17;2236949;79;29590;-71
2022/06/04 10:11:30;;;;;;;9.43;7.12;;;;;;;25.11;59.45;100492.40;2236724;79;31787;-70
2022/06/04 10:14:38;;;;;;;7.12;6.22;;;;;;;25.16;59.77;100492.77;2236823;79;34443;-75
2022/06/04 10:17:39;;;;;;;8.93;6.80;;;;;;;25.38;59.82;100492.30;2237120;79;29868;-78
2022/06/04 10:20:41;;;;;;;6.60;6.00;;;;;;;25.73;59.20;100487.56;2237431;79;27702;-79
2022/06/04 10:23:49;;;;;;;8.30;6.00;;;;;;;25.91;57.32;100488.75;2237219;79;28860;-75
2022/06/04 10:27:09;;;;;;;6.42;5.83;;;;;;;25.98;56.68;100480.17;2236858;79;31687;-75
2022/06/04 10:30:33;;;;;;;5.70;5.20;;;;;;;26.03;55.57;100476.91;2236674;79;34152;-75
2022/06/04 10:33:54;;;;;;;6.50;5.90;;;;;;;25.98;54.74;100473.84;2237319;79;29480;-77
2022/06/04 10:37:39;;;;;;;7.37;5.95;;;;;;;25.97;55.74;100470.23;2236720;79;27695;-70
2022/06/04 10:41:09;;;;;;;7.33;5.17;;;;;;;26.12;56.00;100466.30;2236891;79;30907;-76
2022/06/04 10:44:22;;;;;;;9.38;7.35;;;;;;;26.41;54.76;100459.36;2237072;79;31112;-69
2022/06/04 10:47:36;;;;;;;6.28;5.53;;;;;;;26.56;54.82;100465.48;2236793;79;33008;-66
2022/06/04 10:54:45;;;;;;;4.67;4.20;;;;;;;26.93;52.61;100471.70;2150677;82;27756;-70
2022/06/04 10:58:04;;;;;;;4.72;3.90;;;;;;;26.97;50.41;100485.44;2197088;80;29867;-71
2022/06/04 11:01:24;;;;;;;5.40;4.25;;;;;;;26.75;51.17;100487.56;2082823;85;31802;-72
2022/06/04 11:04:40;;;;;;;4.55;3.90;;;;;;;26.87;51.21;100485.31;2106690;84;33508;-72
2022/06/04 11:08:04;;;;;;;4.95;4.42;;;;;;;27.12;51.16;100490.17;2116207;84;29536;-68
2022/06/04 11:11:20;;;;;;;5.20;4.70;;;;;;;27.23;50.52;100487.00;2115344;83;27670;-74
2022/06/04 11:14:39;;;;;;;4.97;4.60;;;;;;;27.30;50.58;100484.41;2105677;84;29508;-70
2022/06/04 11:17:49;;;;;;;5.25;4.72;;;;;;;27.60;50.30;100490.08;2114498;84;31466;-71
2022/06/04 11:21:13;;;;;;;4.40;4.00;;;;;;;27.68;50.15;100494.13;2028052;87;33790;-70
2022/06/04 11:24:31;;;;;;;4.03;3.67;;;;;;;27.83;49.69;100489.19;1966376;90;29733;-64
2022/06/04 11:27:42;;;;;;;3.98;3.67;;;;;;;27.95;48.42;100486.34;1966171;90;27824;-69
2022/06/04 11:31:32;;;;;;;4.25;3.70;;;;;;;27.96;48.92;100489.44;1968448;90;28587;-67
2022/06/04 11:35:10;;;;;;;4.37;3.67;;;;;;;28.10;48.32;100492.44;1957169;90;31159;-68
2022/06/04 11:38:51;;;;;;;3.58;3.27;;;;;;;28.04;47.50;100491.26;1999870;86;33671;-71
2022/06/04 11:42:37;;;;;;;8.38;4.10;;;;;;;27.97;46.65;100486.98;2050048;86;30350;-70
2022/06/04 11:46:01;;;;;;;4.05;3.72;;;;;;;27.89;46.95;100487.08;2048664;86;27830;-66
2022/06/04 11:49:20;;;;;;;3.72;3.42;;;;;;;27.74;45.92;100492.52;2048323;86;30117;-63
2022/06/04 11:52:34;;;;;;;4.12;3.72;;;;;;;27.54;46.53;100488.92;2048321;86;31176;-67
2022/06/04 11:55:53;;;;;;;5.28;4.00;;;;;;;27.41;47.17;100493.61;2048712;86;33904;-71
2022/06/04 11:59:18;;;;;;;4.28;3.95;;;;;;;27.56;47.30;100484.06;2093377;84;29340;-67
2022/06/04 12:02:40;;;;;;;;;;;;;;;27.65;47.40;100482.64;2200426;81;27644;-69
2022/06/04 12:05:59;;;;;;;5.55;4.00;;;;;;;27.80;47.12;100482.16;2156179;82;29004;-73
2022/06/04 12:09:30;;;;;;;4.92;4.40;;;;;;;27.75;46.94;100486.86;2156248;82;30822;-74
2022/06/04 12:12:52;;;;;;;5.47;4.17;;;;;;;27.79;47.07;100485.95;2118607;82;34911;-67
2022/06/04 12:16:18;;;;;;;4.17;3.58;;;;;;;27.65;46.01;100481.27;2127059;82;29353;-66
2022/06/04 12:26:06;;;;;;;4.78;4.37;;;;;;;27.05;46.50;100491.95;2036201;87;32267;-73
2022/06/04 12:29:34;;;;;;;4.17;3.77;;;;;;;26.96;44.84;100489.76;2036610;87;32818;-72
2022/06/04 12:32:36;;;;;;;5.50;4.17;;;;;;;26.73;45.48;100484.13;2036520;87;30702;-70
2022/06/04 12:35:40;;;;;;;3.75;3.45;;;;;;;26.68;46.18;100477.80;2036839;87;27795;-74
2022/06/04 12:38:44;;;;;;;;;;;;;;;26.84;46.30;100481.89;2039201;87;29936;-70
2022/06/04 12:41:54;;;;;;;4.30;3.90;;;;;;;26.79;45.24;100480.21;2052333;85;31462;-73
2022/06/04 12:45:07;;;;;;;4.12;3.83;;;;;;;26.77;44.97;100490.99;2075468;85;33019;-71
2022/06/04 12:48:36;;;;;;;5.22;3.58;;;;;;;26.71;45.23;100484.85;2065143;83;29715;-63
2022/06/04 12:52:00;;;;;;;4.17;3.87;;;;;;;26.55;44.44;100489.38;2045227;86;27817;-66
2022/06/04 12:55:32;;;;;;;4.00;3.62;;;;;;;26.37;44.48;100497.82;2045282;87;29671;-65
2022/06/04 12:58:44;;;;;;;4.40;4.00;;;;;;;26.22;44.28;100513.64;2045070;86;31410;-78
2022/06/04 13:01:45;;;;;;;4.67;4.28;;;;;;;26.02;44.88;100515.00;2049041;82;34129;-77
2022/06/04 13:04:46;;;;;;;4.75;4.35;;;;;;;25.91;45.15;100521.19;2134165;82;30499;-66
2022/06/04 13:07:53;;;;;;;4.42;4.03;;;;;;;25.77;45.28;100519.13;2134918;83;27634;-75
2022/06/04 13:11:00;;;;;;;4.78;4.03;;;;;;;25.61;45.47;100519.47;2135441;82;28650;-75
2022/06/04 13:14:16;;;;;;;4.45;4.03;;;;;;;25.51;45.84;100516.00;2105307;84;30898;-70
2022/06/04 13:17:42;;;;;;;4.83;4.33;;;;;;;25.42;46.05;100511.54;2106799;84;32876;-71
2022/06/04 13:20:56;;;;;;;5.28;4.78;;;;;;;25.30;46.23;100510.47;2106962;84;29395;-77
2022/06/04 13:24:03;;;;;;;5.40;4.60;;;;;;;25.18;46.06;100509.04;2106974;84;27768;-73
2022/06/04 13:27:11;;;;;;;7.08;5.10;;;;;;;25.15;46.21;100514.87;2073956;82;28746;-75
2022/06/04 13:30:20;;;;;;;7.90;4.55;;;;;;;25.16;46.40;100516.07;2187319;81;31054;-65
2022/06/04 13:33:22;;;;;;;5.40;4.87;;;;;;;25.21;47.00;100523.79;2187317;81;32400;-70
2022/06/04 13:36:30;;;;;;;6.95;4.17;;;;;;;25.24;46.85;100522.09;2187020;81;30032;-73
2022/06/04 13:39:35;;;;;;;5.83;4.90;;;;;;;25.29;47.51;100526.57;2187316;81;28243;-77
2022/06/04 13:42:39;;;;;;;4.70;4.30;;;;;;;25.28;47.82;100526.72;2186122;81;29941;-73
2022/06/04 13:45:41;;;;;;;4.55;4.15;;;;;;;25.21;47.88;100518.30;2187381;81;31071;-77
2022/06/04 13:48:56;;;;;;;5.17;4.65;;;;;;;25.18;47.73;100516.77;2187439;81;33063;-70
2022/06/04 13:52:14;;;;;;;4.70;4.28;;;;;;;25.15;48.46;100522.58;2183269;81;29335;-77
2022/06/04 13:55:30;;;;;;;6.75;4.90;;;;;;;25.08;48.95;100518.77;2188140;81;27678;-77
2022/06/04 13:58:40;;;;;;;5.17;4.67;;;;;;;25.01;50.15;100523.22;2187980;81;29105;-77
2022/06/04 14:01:41;;;;;;;6.50;5.12;;;;;;;24.93;51.09;100527.28;2186923;81;31434;-75
2022/06/04 14:08:06;;;;;;;8.70;5.65;;;;;;;24.73;51.71;100526.19;2187455;81;30079;-78
2022/06/04 14:11:45;;;;;;;6.03;5.10;;;;;;;24.58;51.90;100523.16;2188586;81;27702;-77
2022/06/04 14:15:05;;;;;;;6.40;5.80;;;;;;;24.50;52.24;100519.86;2234907;79;29098;-74
2022/06/04 14:18:28;;;;;;;5.95;5.22;;;;;;;24.45;52.62;100519.47;2234699;79;31409;-67
2022/06/04 14:22:05;;;;;;;4.83;4.37;;;;;;;24.42;53.17;100519.79;2195073;81;33934;-75
2022/06/04 14:25:41;;;;;;;6.85;5.47;;;;;;;24.35;53.21;100518.21;2188853;81;29331;-75
2022/06/04 14:28:53;;;;;;;5.95;5.40;;;;;;;24.28;53.75;100531.69;2188289;81;27640;-79
2022/06/04 14:32:18;;;;;;;7.72;6.12;;;;;;;24.21;53.90;100524.28;2183706;81;29068;-74
2022/06/04 14:35:39;;;;;;;7.72;6.92;;;;;;;24.18;54.08;100517.75;2188481;81;31426;-69
2022/06/04 14:38:40;;;;;;;8.13;7.45;;;;;;;24.25;54.53;100516.10;2188310;81;33404;-68
2022/06/04 14:42:08;;;;;;;10.43;7.90;;;;;;;24.36;54.86;100513.61;2188034;81;29908;-69
2022/06/04 14:45:28;;;;;;;7.28;6.58;;;;;;;24.43;54.81;100514.17;2187315;81;27681;-72
2022/06/04 14:48:58;;;;;;;6.70;6.08;;;;;;;24.47;54.83;100526.17;2188248;81;28556;-76
2022/06/04 14:52:31;;;;;;;5.92;5.33;;;;;;;24.44;54.79;100525.97;2195704;79;32278;-74
2022/06/04 14:56:15;;;;;;;8.63;5.72;;;;;;;24.33;54.45;100522.98;2194814;81;34085;-69
2022/06/04 14:59:55;;;;;;;8.73;6.20;;;;;;;24.25;54.61;100516.10;2218364;79;29737;-74